Matane, Canada
Current Conditions -  °F | °C
As of 1:00 PM on Thursday 29 Jan 2015 (Local Time) from CYYY Reporting Station
Scattered Clouds Scattered Clouds  
Wind Chill: 19°   Ceiling: Unl
Heat Index: 19°   Visibility: 30mi
Dew Point: 14°   Wind: 3mph
Humidity: 80%   Direction: 280°W
Pressure: 30.17"   Gusts: NA
Location:  48.85°N, 67.53°W
Report Text: CYYY 291800Z 28003KT 30SM FEW040 SCT240 M07/M10 A3017 RMK SC2CI1 SLP220
Loading
Personal Weather Stations






























Interactive Weather Map New forecast layout! Learn more

10-Day Weather Forecast

Advertisements
Track Severe Weather on mobile